JBU1255 KFLL-SEGU
Flight info
| Callsign | JBU1255 |
|---|---|
| Flight time | N/A |
| Altitude | 31000 |
| Route | REGAE2 URSUS UP406 PUTUL/N0462F330 UP406 UBSUX UQ101 ANRON UQ102 BOKAN UP778 QIT/N0462F340 UW9 TEMOX TEMOX2 |
| Aircraft | A21N/M-SDE3FGHIRWY/LB1 |
Departure
| Time | 2026-05-07 15:16 |
|---|---|
| Airport | Fort Lauderdale Hollywood International Airport (KFLL) |
Arrival
| Time | N/A |
|---|---|
| Airport | José Joaquín de Olmedo International Airport (SEGU) |
| Time | Latitude | Longitude | Altitude | Speed | Heading |
|---|---|---|---|---|---|
| 2026-05-07 15:13 | 26.06769 | -80.15296 | 11 ft | 12 kts | 270° |
| 2026-05-07 15:13 | 26.06734 | -80.15379 | 11 ft | 12 kts | 213° |
| 2026-05-07 15:13 | 26.06697 | -80.15457 | 11 ft | 12 kts | 268° |
| 2026-05-07 15:14 | 26.06695 | -80.15552 | 12 ft | 12 kts | 270° |
| 2026-05-07 15:14 | 26.06697 | -80.15648 | 12 ft | 12 kts | 272° |
| 2026-05-07 15:14 | 26.06698 | -80.15743 | 12 ft | 12 kts | 270° |
| 2026-05-07 15:14 | 26.06662 | -80.15818 | 12 ft | 11 kts | 199° |
| 2026-05-07 15:15 | 26.06591 | -80.15803 | 12 ft | 11 kts | 110° |
| 2026-05-07 15:15 | 26.06589 | -80.15711 | 12 ft | 17 kts | 90° |
| 2026-05-07 15:15 | 26.06587 | -80.15273 | 12 ft | 94 kts | 90° |
| 2026-05-07 15:15 | 26.06581 | -80.14302 | 12 ft | 157 kts | 90° |
| 2026-05-07 15:16 | 26.06570 | -80.12919 | 278 ft | 185 kts | 91° |
| 2026-05-07 15:16 | 26.06564 | -80.11510 | 938 ft | 187 kts | 90° |
| 2026-05-07 15:16 | 26.06573 | -80.10064 | 1628 ft | 191 kts | 90° |
| 2026-05-07 15:16 | 26.06598 | -80.08599 | 2106 ft | 193 kts | 89° |
| 2026-05-07 15:17 | 26.06625 | -80.07070 | 2363 ft | 206 kts | 92° |
| 2026-05-07 15:17 | 26.06252 | -80.05505 | 2588 ft | 218 kts | 127° |
| 2026-05-07 15:17 | 26.04986 | -80.04535 | 2796 ft | 232 kts | 165° |
| 2026-05-07 15:17 | 26.03366 | -80.04168 | 3076 ft | 247 kts | 171° |
| 2026-05-07 15:18 | 26.01617 | -80.03850 | 3377 ft | 262 kts | 170° |
| 2026-05-07 15:18 | 25.99784 | -80.03457 | 3835 ft | 269 kts | 168° |
| 2026-05-07 15:18 | 25.97942 | -80.03005 | 4416 ft | 271 kts | 167° |
| 2026-05-07 15:18 | 25.96117 | -80.02521 | 4991 ft | 273 kts | 166° |
| 2026-05-07 15:19 | 25.94269 | -80.02007 | 5544 ft | 276 kts | 165° |
| 2026-05-07 15:19 | 25.92398 | -80.01472 | 6078 ft | 279 kts | 165° |
| 2026-05-07 15:19 | 25.90519 | -80.00927 | 6614 ft | 282 kts | 164° |
| 2026-05-07 15:19 | 25.88617 | -80.00372 | 7134 ft | 284 kts | 164° |
| 2026-05-07 15:20 | 25.86674 | -79.99801 | 7645 ft | 287 kts | 164° |
| 2026-05-07 15:20 | 25.84758 | -79.99236 | 8134 ft | 289 kts | 164° |
| 2026-05-07 15:20 | 25.82793 | -79.98657 | 8604 ft | 291 kts | 163° |
| 2026-05-07 15:20 | 25.80825 | -79.98077 | 9054 ft | 294 kts | 163° |
| 2026-05-07 15:21 | 25.78855 | -79.97497 | 9491 ft | 296 kts | 163° |
| 2026-05-07 15:21 | 25.76863 | -79.96909 | 9921 ft | 298 kts | 163° |
| 2026-05-07 15:21 | 25.74848 | -79.96313 | 10333 ft | 301 kts | 163° |
| 2026-05-07 15:21 | 25.72771 | -79.95701 | 10584 ft | 312 kts | 163° |
| 2026-05-07 15:22 | 25.70631 | -79.95070 | 10827 ft | 323 kts | 163° |
| 2026-05-07 15:22 | 25.68407 | -79.94415 | 11031 ft | 334 kts | 163° |
| 2026-05-07 15:22 | 25.66144 | -79.93748 | 11231 ft | 344 kts | 164° |
| 2026-05-07 15:22 | 25.63805 | -79.93061 | 11543 ft | 349 kts | 164° |
| 2026-05-07 15:23 | 25.61448 | -79.92369 | 11949 ft | 352 kts | 164° |
| 2026-05-07 15:23 | 25.59078 | -79.91672 | 12360 ft | 354 kts | 164° |
| 2026-05-07 15:23 | 25.56682 | -79.90968 | 12766 ft | 356 kts | 164° |
| 2026-05-07 15:23 | 25.54267 | -79.90260 | 13173 ft | 358 kts | 164° |
| 2026-05-07 15:24 | 25.51847 | -79.89549 | 13567 ft | 360 kts | 164° |
| 2026-05-07 15:24 | 25.49411 | -79.88834 | 13935 ft | 363 kts | 164° |
| 2026-05-07 15:24 | 25.46966 | -79.88116 | 14295 ft | 366 kts | 164° |
| 2026-05-07 15:24 | 25.44487 | -79.87389 | 14641 ft | 369 kts | 164° |
| 2026-05-07 15:25 | 25.42024 | -79.86668 | 14982 ft | 372 kts | 164° |
| 2026-05-07 15:25 | 25.39503 | -79.85930 | 15327 ft | 375 kts | 165° |
| 2026-05-07 15:25 | 25.36953 | -79.85184 | 15657 ft | 378 kts | 165° |
| 2026-05-07 15:25 | 25.34399 | -79.84424 | 15988 ft | 381 kts | 163° |
| 2026-05-07 15:26 | 25.31837 | -79.83611 | 16324 ft | 383 kts | 163° |
| 2026-05-07 15:26 | 25.29269 | -79.82781 | 16657 ft | 386 kts | 163° |
| 2026-05-07 15:26 | 25.26683 | -79.81946 | 16982 ft | 389 kts | 163° |
| 2026-05-07 15:26 | 25.24071 | -79.81105 | 17292 ft | 391 kts | 163° |
| 2026-05-07 15:27 | 25.21445 | -79.80263 | 17591 ft | 394 kts | 163° |
| 2026-05-07 15:27 | 25.18820 | -79.79422 | 17890 ft | 397 kts | 163° |
| 2026-05-07 15:27 | 25.16150 | -79.78567 | 18233 ft | 398 kts | 163° |
| 2026-05-07 15:27 | 25.13494 | -79.77718 | 18564 ft | 400 kts | 164° |
| 2026-05-07 15:28 | 25.10806 | -79.76859 | 18864 ft | 402 kts | 164° |
| 2026-05-07 15:28 | 25.08099 | -79.75997 | 19178 ft | 404 kts | 164° |
| 2026-05-07 15:28 | 25.05384 | -79.75131 | 19488 ft | 405 kts | 164° |
| 2026-05-07 15:28 | 25.02666 | -79.74264 | 19799 ft | 407 kts | 164° |
| 2026-05-07 15:29 | 24.99929 | -79.73392 | 20106 ft | 408 kts | 164° |
| 2026-05-07 15:29 | 24.97200 | -79.72523 | 20394 ft | 410 kts | 165° |
| 2026-05-07 15:29 | 24.94460 | -79.71651 | 20677 ft | 412 kts | 165° |
| 2026-05-07 15:29 | 24.91703 | -79.70753 | 20959 ft | 413 kts | 162° |
| 2026-05-07 15:30 | 24.89019 | -79.69613 | 21219 ft | 416 kts | 156° |
| 2026-05-07 15:30 | 24.86428 | -79.68135 | 21476 ft | 418 kts | 149° |
| 2026-05-07 15:30 | 24.83962 | -79.66444 | 21738 ft | 420 kts | 147° |
| 2026-05-07 15:30 | 24.81501 | -79.64694 | 21979 ft | 422 kts | 147° |
| 2026-05-07 15:31 | 24.79034 | -79.62933 | 22221 ft | 424 kts | 147° |
| 2026-05-07 15:31 | 24.76549 | -79.61167 | 22480 ft | 426 kts | 147° |
| 2026-05-07 15:31 | 24.74057 | -79.59403 | 22754 ft | 427 kts | 148° |
| 2026-05-07 15:31 | 24.71555 | -79.57638 | 23010 ft | 428 kts | 148° |
| 2026-05-07 15:32 | 24.69049 | -79.55873 | 23261 ft | 429 kts | 148° |
| 2026-05-07 15:32 | 24.66496 | -79.54079 | 23490 ft | 432 kts | 148° |
| 2026-05-07 15:32 | 24.63965 | -79.52301 | 23725 ft | 433 kts | 148° |
| 2026-05-07 15:32 | 24.61447 | -79.50532 | 23951 ft | 435 kts | 148° |
| 2026-05-07 15:33 | 24.58859 | -79.48717 | 24183 ft | 437 kts | 148° |
| 2026-05-07 15:33 | 24.56306 | -79.46926 | 24415 ft | 438 kts | 148° |
| 2026-05-07 15:33 | 24.53726 | -79.45117 | 24640 ft | 440 kts | 148° |
| 2026-05-07 15:33 | 24.51143 | -79.43308 | 24869 ft | 442 kts | 148° |
| 2026-05-07 15:34 | 24.48567 | -79.41502 | 25082 ft | 443 kts | 148° |
| 2026-05-07 15:34 | 24.45944 | -79.39666 | 25300 ft | 445 kts | 148° |
| 2026-05-07 15:34 | 24.43339 | -79.37843 | 25520 ft | 447 kts | 148° |
| 2026-05-07 15:34 | 24.40688 | -79.35989 | 25735 ft | 448 kts | 148° |
| 2026-05-07 15:35 | 24.38047 | -79.34141 | 25953 ft | 449 kts | 148° |
| 2026-05-07 15:35 | 24.35430 | -79.32313 | 26153 ft | 451 kts | 148° |
| 2026-05-07 15:35 | 24.32760 | -79.30450 | 26355 ft | 452 kts | 148° |
| 2026-05-07 15:35 | 24.30131 | -79.28612 | 26550 ft | 454 kts | 148° |
| 2026-05-07 15:36 | 24.27484 | -79.26726 | 26739 ft | 455 kts | 147° |
| 2026-05-07 15:36 | 24.24828 | -79.24815 | 26931 ft | 457 kts | 147° |
| 2026-05-07 15:36 | 24.22172 | -79.22901 | 27119 ft | 458 kts | 147° |
| 2026-05-07 15:36 | 24.19507 | -79.20982 | 27302 ft | 460 kts | 147° |
| 2026-05-07 15:37 | 24.16826 | -79.19056 | 27488 ft | 461 kts | 147° |
| 2026-05-07 15:37 | 24.14140 | -79.17127 | 27668 ft | 462 kts | 147° |
| 2026-05-07 15:37 | 24.11417 | -79.15174 | 27838 ft | 464 kts | 147° |
| 2026-05-07 15:37 | 24.08722 | -79.13242 | 28004 ft | 466 kts | 147° |
| 2026-05-07 15:38 | 24.06011 | -79.11303 | 28190 ft | 467 kts | 147° |
| 2026-05-07 15:38 | 24.03279 | -79.09367 | 28379 ft | 468 kts | 149° |
| 2026-05-07 15:38 | 24.00379 | -79.07718 | 28537 ft | 469 kts | 158° |
| 2026-05-07 15:38 | 23.97333 | -79.06522 | 28721 ft | 468 kts | 166° |
| 2026-05-07 15:39 | 23.94123 | -79.05734 | 28984 ft | 466 kts | 171° |
| 2026-05-07 15:39 | 23.90954 | -79.05109 | 29269 ft | 464 kts | 172° |
| 2026-05-07 15:39 | 23.87769 | -79.04507 | 29520 ft | 464 kts | 172° |
| 2026-05-07 15:39 | 23.84596 | -79.03906 | 29748 ft | 463 kts | 172° |
| 2026-05-07 15:40 | 23.81384 | -79.03288 | 29978 ft | 463 kts | 172° |
| 2026-05-07 15:40 | 23.78202 | -79.02669 | 30201 ft | 463 kts | 172° |
| 2026-05-07 15:40 | 23.75052 | -79.02051 | 30435 ft | 463 kts | 171° |
| 2026-05-07 15:40 | 23.71874 | -79.01424 | 30675 ft | 463 kts | 171° |
| 2026-05-07 15:41 | 23.68712 | -79.00800 | 30893 ft | 462 kts | 171° |
| 2026-05-07 15:41 | 23.65553 | -79.00175 | 31072 ft | 462 kts | 171° |
| 2026-05-07 15:41 | 23.59212 | -78.98923 | 31081 ft | 461 kts | 171° |
| 2026-05-07 15:42 | 23.52882 | -78.97675 | 31084 ft | 460 kts | 171° |
| 2026-05-07 15:42 | 23.46604 | -78.96438 | 31084 ft | 460 kts | 171° |
| 2026-05-07 15:43 | 23.40297 | -78.95196 | 31084 ft | 460 kts | 171° |
| 2026-05-07 15:43 | 23.33977 | -78.93953 | 31084 ft | 460 kts | 171° |
| 2026-05-07 15:44 | 23.27659 | -78.92710 | 31084 ft | 459 kts | 171° |
| 2026-05-07 15:44 | 23.21373 | -78.91476 | 31084 ft | 459 kts | 171° |
| 2026-05-07 15:45 | 23.15108 | -78.90249 | 31083 ft | 459 kts | 171° |
| 2026-05-07 15:45 | 23.08805 | -78.89011 | 31083 ft | 459 kts | 171° |
| 2026-05-07 15:46 | 22.99373 | -78.87162 | 31084 ft | 458 kts | 171° |
| 2026-05-07 15:47 | 22.93117 | -78.85938 | 31084 ft | 458 kts | 171° |
| 2026-05-07 15:47 | 22.86789 | -78.84700 | 31080 ft | 458 kts | 170° |
| 2026-05-07 15:48 | 22.80526 | -78.83476 | 31081 ft | 458 kts | 170° |
| 2026-05-07 15:48 | 22.74225 | -78.82244 | 31081 ft | 458 kts | 170° |
| 2026-05-07 15:49 | 22.67937 | -78.81018 | 31078 ft | 458 kts | 170° |
| 2026-05-07 15:49 | 22.61654 | -78.79794 | 31076 ft | 458 kts | 170° |
| 2026-05-07 15:50 | 22.55373 | -78.78571 | 31074 ft | 458 kts | 170° |
| 2026-05-07 15:50 | 22.49078 | -78.77349 | 31071 ft | 458 kts | 170° |
| 2026-05-07 15:51 | 22.42800 | -78.76131 | 31071 ft | 464 kts | 170° |
| 2026-05-07 15:51 | 22.36342 | -78.74878 | 31068 ft | 475 kts | 170° |
| 2026-05-07 15:52 | 22.29768 | -78.73604 | 31065 ft | 485 kts | 170° |
| 2026-05-07 15:52 | 22.23059 | -78.72304 | 31064 ft | 493 kts | 170° |
| 2026-05-07 15:53 | 22.16265 | -78.70990 | 31063 ft | 500 kts | 170° |
| 2026-05-07 15:53 | 22.09339 | -78.69653 | 31062 ft | 505 kts | 169° |
| 2026-05-07 15:54 | 22.02432 | -78.68320 | 31064 ft | 505 kts | 169° |
| 2026-05-07 15:54 | 21.95476 | -78.66977 | 31064 ft | 505 kts | 169° |
| 2026-05-07 15:55 | 21.88528 | -78.65639 | 31063 ft | 505 kts | 169° |
| 2026-05-07 15:55 | 21.81647 | -78.64314 | 31059 ft | 505 kts | 169° |
| 2026-05-07 15:56 | 21.74686 | -78.62975 | 31059 ft | 505 kts | 169° |
| 2026-05-07 15:56 | 21.67761 | -78.61646 | 31056 ft | 505 kts | 169° |
| 2026-05-07 15:57 | 21.60848 | -78.60319 | 31056 ft | 505 kts | 169° |
| 2026-05-07 15:57 | 21.53900 | -78.58987 | 31053 ft | 506 kts | 169° |
| 2026-05-07 15:58 | 21.46962 | -78.57658 | 31057 ft | 505 kts | 169° |
| 2026-05-07 15:58 | 21.40074 | -78.56339 | 31051 ft | 505 kts | 169° |
| 2026-05-07 15:59 | 21.33141 | -78.55013 | 31052 ft | 504 kts | 169° |
| 2026-05-07 15:59 | 21.26220 | -78.53691 | 31052 ft | 504 kts | 169° |
| 2026-05-07 16:00 | 21.19286 | -78.52367 | 31054 ft | 505 kts | 169° |
| 2026-05-07 16:00 | 21.12352 | -78.51045 | 31053 ft | 505 kts | 169° |
| 2026-05-07 16:01 | 21.05443 | -78.49731 | 31051 ft | 505 kts | 169° |
| 2026-05-07 16:01 | 20.98515 | -78.48413 | 31052 ft | 504 kts | 169° |
| 2026-05-07 16:02 | 20.91624 | -78.47102 | 31051 ft | 505 kts | 169° |
| 2026-05-07 16:02 | 20.84702 | -78.45787 | 31052 ft | 505 kts | 169° |
| 2026-05-07 16:03 | 20.77782 | -78.44473 | 31050 ft | 505 kts | 169° |
| 2026-05-07 16:03 | 20.70850 | -78.43160 | 31050 ft | 505 kts | 169° |
| 2026-05-07 16:04 | 20.63922 | -78.41849 | 31054 ft | 506 kts | 169° |
| 2026-05-07 16:04 | 20.56964 | -78.40530 | 31309 ft | 504 kts | 169° |
| 2026-05-07 16:04 | 20.53520 | -78.39879 | 31453 ft | 503 kts | 169° |
| 2026-05-07 16:05 | 20.50067 | -78.39226 | 31564 ft | 503 kts | 169° |
| 2026-05-07 16:05 | 20.43173 | -78.37923 | 31770 ft | 503 kts | 169° |
| 2026-05-07 16:05 | 20.39732 | -78.37274 | 31886 ft | 502 kts | 169° |
| 2026-05-07 16:06 | 20.36257 | -78.36619 | 31994 ft | 502 kts | 169° |
| 2026-05-07 16:06 | 20.32809 | -78.35969 | 32098 ft | 502 kts | 169° |
| 2026-05-07 16:06 | 20.29394 | -78.35326 | 32204 ft | 502 kts | 169° |
| 2026-05-07 16:06 | 20.25934 | -78.34674 | 32324 ft | 501 kts | 169° |
| 2026-05-07 16:07 | 20.22502 | -78.34027 | 32438 ft | 501 kts | 169° |
| 2026-05-07 16:07 | 20.19036 | -78.33375 | 32550 ft | 500 kts | 169° |
| 2026-05-07 16:07 | 20.15637 | -78.32735 | 32660 ft | 500 kts | 170° |
| 2026-05-07 16:08 | 20.08767 | -78.31443 | 32853 ft | 499 kts | 170° |
| 2026-05-07 16:08 | 20.05358 | -78.30802 | 32963 ft | 499 kts | 170° |
| 2026-05-07 16:08 | 20.01896 | -78.30152 | 33038 ft | 499 kts | 170° |
| 2026-05-07 16:09 | 19.95067 | -78.28770 | 33043 ft | 499 kts | 168° |
| 2026-05-07 16:09 | 19.88298 | -78.27213 | 33043 ft | 499 kts | 167° |
| 2026-05-07 16:10 | 19.81493 | -78.25642 | 33044 ft | 499 kts | 167° |
| 2026-05-07 16:10 | 19.74689 | -78.24077 | 33044 ft | 498 kts | 167° |
| 2026-05-07 16:11 | 19.67914 | -78.22519 | 33045 ft | 498 kts | 167° |
| 2026-05-07 16:11 | 19.61120 | -78.20959 | 33045 ft | 498 kts | 167° |
| 2026-05-07 16:12 | 19.54350 | -78.19405 | 33045 ft | 498 kts | 167° |
| 2026-05-07 16:12 | 19.47577 | -78.17851 | 33045 ft | 499 kts | 167° |
| 2026-05-07 16:13 | 19.40789 | -78.16297 | 33046 ft | 498 kts | 167° |
| 2026-05-07 16:13 | 19.33992 | -78.14742 | 33049 ft | 498 kts | 167° |
| 2026-05-07 16:14 | 19.27237 | -78.13198 | 33051 ft | 497 kts | 167° |
| 2026-05-07 16:14 | 19.20439 | -78.11645 | 33049 ft | 497 kts | 167° |
| 2026-05-07 16:15 | 19.13661 | -78.10098 | 33048 ft | 498 kts | 167° |
| 2026-05-07 16:15 | 19.06885 | -78.08552 | 33047 ft | 498 kts | 167° |
| 2026-05-07 16:16 | 19.00120 | -78.07011 | 33044 ft | 497 kts | 167° |
| 2026-05-07 16:16 | 18.93355 | -78.05470 | 33042 ft | 496 kts | 167° |
| 2026-05-07 16:17 | 18.86612 | -78.03935 | 33040 ft | 496 kts | 167° |
| 2026-05-07 16:17 | 18.79818 | -78.02390 | 33039 ft | 497 kts | 167° |
| 2026-05-07 16:18 | 18.73053 | -78.00855 | 33038 ft | 498 kts | 167° |
| 2026-05-07 16:18 | 18.66274 | -77.99317 | 33038 ft | 498 kts | 167° |
| 2026-05-07 16:19 | 18.59480 | -77.97777 | 33040 ft | 497 kts | 167° |
| 2026-05-07 16:19 | 18.52699 | -77.96240 | 33042 ft | 497 kts | 167° |
| 2026-05-07 16:20 | 18.45950 | -77.94711 | 33045 ft | 496 kts | 167° |
| 2026-05-07 16:20 | 18.39172 | -77.93179 | 33052 ft | 497 kts | 167° |
| 2026-05-07 16:21 | 18.32414 | -77.91652 | 33062 ft | 498 kts | 167° |
| 2026-05-07 16:21 | 18.25639 | -77.90122 | 33072 ft | 497 kts | 167° |
| 2026-05-07 16:22 | 18.18861 | -77.88593 | 33071 ft | 498 kts | 167° |
| 2026-05-07 16:22 | 18.12090 | -77.87067 | 33060 ft | 498 kts | 166° |
| 2026-05-07 16:23 | 18.05282 | -77.85532 | 33048 ft | 499 kts | 166° |
| 2026-05-07 16:23 | 17.98504 | -77.84006 | 33032 ft | 498 kts | 166° |
| 2026-05-07 16:24 | 17.91693 | -77.82474 | 33026 ft | 497 kts | 166° |
| 2026-05-07 16:24 | 17.84949 | -77.80959 | 33024 ft | 497 kts | 166° |
| 2026-05-07 16:25 | 17.78180 | -77.79439 | 33024 ft | 498 kts | 166° |
| 2026-05-07 16:25 | 17.71392 | -77.77914 | 33024 ft | 498 kts | 166° |
| 2026-05-07 16:26 | 17.64592 | -77.76389 | 33024 ft | 498 kts | 166° |
| 2026-05-07 16:26 | 17.57792 | -77.74866 | 33024 ft | 497 kts | 166° |
| 2026-05-07 16:27 | 17.51041 | -77.73354 | 33024 ft | 497 kts | 166° |
| 2026-05-07 16:27 | 17.44256 | -77.71835 | 33024 ft | 496 kts | 166° |
| 2026-05-07 16:28 | 17.37514 | -77.70328 | 33023 ft | 496 kts | 166° |
| 2026-05-07 16:28 | 17.30705 | -77.68809 | 33023 ft | 497 kts | 166° |
| 2026-05-07 16:29 | 17.23948 | -77.67299 | 33023 ft | 497 kts | 166° |
| 2026-05-07 16:29 | 17.17166 | -77.65785 | 33023 ft | 496 kts | 166° |
| 2026-05-07 16:30 | 17.10435 | -77.64284 | 33023 ft | 496 kts | 166° |
| 2026-05-07 16:30 | 17.03657 | -77.62774 | 33023 ft | 496 kts | 166° |
| 2026-05-07 16:31 | 16.96894 | -77.61270 | 33023 ft | 496 kts | 166° |
| 2026-05-07 16:31 | 16.90160 | -77.59773 | 33022 ft | 496 kts | 166° |
| 2026-05-07 16:32 | 16.83380 | -77.58266 | 33022 ft | 496 kts | 166° |
| 2026-05-07 16:32 | 16.76607 | -77.56761 | 33021 ft | 496 kts | 166° |
| 2026-05-07 16:33 | 16.69841 | -77.55259 | 33019 ft | 495 kts | 166° |
| 2026-05-07 16:33 | 16.63124 | -77.53770 | 33017 ft | 495 kts | 166° |
| 2026-05-07 16:34 | 16.56375 | -77.52274 | 33016 ft | 495 kts | 166° |
| 2026-05-07 16:34 | 16.49597 | -77.50774 | 33014 ft | 495 kts | 166° |
| 2026-05-07 16:35 | 16.42857 | -77.49282 | 33011 ft | 496 kts | 166° |
| 2026-05-07 16:35 | 16.36094 | -77.47786 | 33011 ft | 495 kts | 166° |
| 2026-05-07 16:36 | 16.29331 | -77.46291 | 33010 ft | 495 kts | 166° |
| 2026-05-07 16:36 | 16.22617 | -77.44808 | 33007 ft | 495 kts | 166° |
| 2026-05-07 16:37 | 16.15839 | -77.43312 | 33006 ft | 494 kts | 166° |
| 2026-05-07 16:37 | 16.09092 | -77.41824 | 33004 ft | 495 kts | 166° |
| 2026-05-07 16:38 | 16.02389 | -77.40346 | 33004 ft | 495 kts | 166° |
| 2026-05-07 16:38 | 15.95622 | -77.38872 | 32999 ft | 495 kts | 167° |
| 2026-05-07 16:39 | 15.88848 | -77.37523 | 32999 ft | 495 kts | 167° |
| 2026-05-07 16:39 | 15.82041 | -77.36183 | 32998 ft | 495 kts | 167° |
| 2026-05-07 16:40 | 15.75297 | -77.34847 | 32998 ft | 495 kts | 167° |
| 2026-05-07 16:40 | 15.68515 | -77.33498 | 32997 ft | 495 kts | 167° |
| 2026-05-07 16:41 | 15.61717 | -77.32146 | 32997 ft | 495 kts | 167° |
| 2026-05-07 16:41 | 15.54960 | -77.30801 | 32992 ft | 495 kts | 167° |
| 2026-05-07 16:42 | 15.48175 | -77.29453 | 32995 ft | 495 kts | 167° |
| 2026-05-07 16:42 | 15.41393 | -77.28108 | 32996 ft | 495 kts | 167° |
| 2026-05-07 16:43 | 15.34606 | -77.26761 | 32995 ft | 495 kts | 167° |
| 2026-05-07 16:43 | 15.27833 | -77.25416 | 33001 ft | 495 kts | 167° |
| 2026-05-07 16:44 | 15.21084 | -77.24078 | 32999 ft | 495 kts | 167° |
| 2026-05-07 16:44 | 15.14298 | -77.22732 | 33003 ft | 495 kts | 167° |
| 2026-05-07 16:45 | 15.07512 | -77.21389 | 32997 ft | 494 kts | 167° |
| 2026-05-07 16:45 | 15.00741 | -77.20050 | 33000 ft | 495 kts | 167° |
| 2026-05-07 16:46 | 14.93971 | -77.18697 | 32995 ft | 496 kts | 167° |
| 2026-05-07 16:46 | 14.87189 | -77.17328 | 32987 ft | 495 kts | 167° |
| 2026-05-07 16:47 | 14.80415 | -77.15962 | 32976 ft | 495 kts | 167° |
| 2026-05-07 16:47 | 14.73633 | -77.14595 | 32976 ft | 495 kts | 167° |
| 2026-05-07 16:48 | 14.66859 | -77.13232 | 32977 ft | 494 kts | 167° |
| 2026-05-07 16:48 | 14.60104 | -77.11875 | 32973 ft | 495 kts | 167° |
| 2026-05-07 16:49 | 14.53313 | -77.10510 | 32970 ft | 495 kts | 167° |
| 2026-05-07 16:49 | 14.46529 | -77.09148 | 32972 ft | 496 kts | 167° |
| 2026-05-07 16:50 | 14.39737 | -77.07785 | 32969 ft | 496 kts | 167° |
| 2026-05-07 16:50 | 14.32950 | -77.06423 | 32968 ft | 496 kts | 167° |
| 2026-05-07 16:51 | 14.26179 | -77.05065 | 32966 ft | 495 kts | 167° |
| 2026-05-07 16:51 | 14.19419 | -77.03712 | 32967 ft | 495 kts | 167° |
| 2026-05-07 16:52 | 14.12623 | -77.02351 | 32966 ft | 495 kts | 167° |
| 2026-05-07 16:52 | 14.05847 | -77.00997 | 32962 ft | 495 kts | 167° |
| 2026-05-07 16:53 | 13.99103 | -76.99649 | 32963 ft | 496 kts | 167° |
| 2026-05-07 16:53 | 13.92305 | -76.98289 | 32969 ft | 496 kts | 167° |
| 2026-05-07 16:54 | 13.85529 | -76.96935 | 32973 ft | 495 kts | 167° |
| 2026-05-07 16:54 | 13.78726 | -76.95576 | 32975 ft | 495 kts | 167° |
| 2026-05-07 16:55 | 13.71976 | -76.94231 | 32970 ft | 495 kts | 167° |
| 2026-05-07 16:55 | 13.65175 | -76.92876 | 32969 ft | 495 kts | 166° |
| 2026-05-07 16:56 | 13.58422 | -76.91531 | 32966 ft | 496 kts | 166° |
| 2026-05-07 16:56 | 13.48233 | -76.89500 | 32961 ft | 496 kts | 166° |
| 2026-05-07 16:57 | 13.41452 | -76.88151 | 32955 ft | 495 kts | 167° |
| 2026-05-07 16:57 | 13.34680 | -76.86804 | 32950 ft | 495 kts | 167° |
| 2026-05-07 16:58 | 13.27897 | -76.85456 | 32947 ft | 495 kts | 166° |
| 2026-05-07 16:58 | 13.21093 | -76.84105 | 32945 ft | 495 kts | 167° |
| 2026-05-07 16:59 | 13.14321 | -76.82761 | 32946 ft | 496 kts | 167° |
| 2026-05-07 16:59 | 13.07532 | -76.81415 | 32944 ft | 495 kts | 166° |
| 2026-05-07 17:00 | 13.00752 | -76.80069 | 32938 ft | 495 kts | 166° |
| 2026-05-07 17:00 | 12.93987 | -76.78728 | 32936 ft | 495 kts | 166° |
| 2026-05-07 17:01 | 12.87193 | -76.77381 | 32932 ft | 496 kts | 167° |
| 2026-05-07 17:01 | 12.80414 | -76.76038 | 32929 ft | 495 kts | 166° |
| 2026-05-07 17:02 | 12.73643 | -76.74699 | 32930 ft | 495 kts | 166° |
| 2026-05-07 17:02 | 12.66829 | -76.73617 | 32935 ft | 496 kts | 172° |
| 2026-05-07 17:03 | 12.59911 | -76.73128 | 32938 ft | 497 kts | 174° |
| 2026-05-07 17:03 | 12.52981 | -76.72717 | 32934 ft | 497 kts | 174° |
| 2026-05-07 17:04 | 12.46069 | -76.72304 | 32931 ft | 497 kts | 174° |
| 2026-05-07 17:04 | 12.39168 | -76.71886 | 32928 ft | 497 kts | 174° |
| 2026-05-07 17:05 | 12.32248 | -76.71465 | 32928 ft | 496 kts | 174° |
| 2026-05-07 17:05 | 12.25319 | -76.71042 | 32928 ft | 496 kts | 174° |
| 2026-05-07 17:06 | 12.18449 | -76.70624 | 32922 ft | 496 kts | 174° |
| 2026-05-07 17:06 | 12.11528 | -76.70202 | 32916 ft | 497 kts | 174° |
| 2026-05-07 17:07 | 12.04615 | -76.69781 | 32914 ft | 496 kts | 174° |
| 2026-05-07 17:07 | 11.97677 | -76.69359 | 32912 ft | 496 kts | 174° |
| 2026-05-07 17:08 | 11.90776 | -76.68938 | 32918 ft | 496 kts | 174° |
| 2026-05-07 17:08 | 11.83870 | -76.68519 | 32920 ft | 495 kts | 174° |
| 2026-05-07 17:09 | 11.76964 | -76.68099 | 32924 ft | 495 kts | 174° |
| 2026-05-07 17:09 | 11.70083 | -76.67681 | 32919 ft | 495 kts | 174° |
| 2026-05-07 17:10 | 11.63211 | -76.67265 | 32919 ft | 495 kts | 174° |
| 2026-05-07 17:10 | 11.56280 | -76.66843 | 32918 ft | 495 kts | 174° |
| 2026-05-07 17:11 | 11.49391 | -76.66426 | 32908 ft | 494 kts | 174° |
| 2026-05-07 17:11 | 11.42516 | -76.66009 | 32905 ft | 494 kts | 174° |
| 2026-05-07 17:12 | 11.35643 | -76.65592 | 32906 ft | 494 kts | 174° |
| 2026-05-07 17:12 | 11.28761 | -76.65176 | 32911 ft | 495 kts | 174° |
| 2026-05-07 17:13 | 11.21880 | -76.64759 | 32910 ft | 495 kts | 174° |
| 2026-05-07 17:13 | 11.14980 | -76.64342 | 32908 ft | 493 kts | 174° |
| 2026-05-07 17:14 | 11.08149 | -76.63929 | 32906 ft | 493 kts | 174° |
| 2026-05-07 17:14 | 11.01279 | -76.63514 | 32905 ft | 493 kts | 174° |
| 2026-05-07 17:15 | 10.94383 | -76.63097 | 32906 ft | 494 kts | 174° |
| 2026-05-07 17:15 | 10.87497 | -76.62680 | 32906 ft | 495 kts | 174° |
| 2026-05-07 17:16 | 10.80645 | -76.62267 | 32906 ft | 494 kts | 174° |
| 2026-05-07 17:16 | 10.73770 | -76.61852 | 32905 ft | 493 kts | 174° |
| 2026-05-07 17:17 | 10.66907 | -76.61439 | 32902 ft | 493 kts | 174° |
| 2026-05-07 17:17 | 10.59998 | -76.61024 | 32901 ft | 494 kts | 174° |
| 2026-05-07 17:18 | 10.53122 | -76.60608 | 32896 ft | 494 kts | 174° |
| 2026-05-07 17:18 | 10.46242 | -76.60192 | 32892 ft | 495 kts | 175° |
| 2026-05-07 17:19 | 10.39356 | -76.59779 | 32889 ft | 494 kts | 175° |
| 2026-05-07 17:19 | 10.32510 | -76.59368 | 32889 ft | 494 kts | 175° |
| 2026-05-07 17:20 | 10.25583 | -76.58952 | 32888 ft | 495 kts | 175° |
| 2026-05-07 17:20 | 10.18738 | -76.58540 | 32891 ft | 495 kts | 175° |
| 2026-05-07 17:21 | 10.11829 | -76.58123 | 32891 ft | 495 kts | 175° |
| 2026-05-07 17:21 | 10.04924 | -76.57708 | 32890 ft | 495 kts | 175° |
| 2026-05-07 17:22 | 9.98014 | -76.57294 | 32889 ft | 495 kts | 175° |
| 2026-05-07 17:22 | 9.91165 | -76.56884 | 32890 ft | 494 kts | 175° |
| 2026-05-07 17:23 | 9.84250 | -76.56469 | 32888 ft | 494 kts | 175° |
| 2026-05-07 17:23 | 9.77375 | -76.56055 | 32889 ft | 494 kts | 175° |
| 2026-05-07 17:24 | 9.70483 | -76.55642 | 32888 ft | 494 kts | 175° |
| 2026-05-07 17:24 | 9.63591 | -76.55228 | 32887 ft | 494 kts | 175° |
| 2026-05-07 17:25 | 9.56731 | -76.54818 | 32885 ft | 494 kts | 175° |
| 2026-05-07 17:25 | 9.49874 | -76.54408 | 32884 ft | 493 kts | 175° |
| 2026-05-07 17:26 | 9.42973 | -76.53993 | 32883 ft | 494 kts | 175° |
| 2026-05-07 17:26 | 9.36103 | -76.53581 | 32882 ft | 493 kts | 175° |
| 2026-05-07 17:27 | 9.29261 | -76.53171 | 32878 ft | 493 kts | 175° |
| 2026-05-07 17:27 | 9.22401 | -76.52760 | 32873 ft | 493 kts | 175° |
| 2026-05-07 17:28 | 9.15514 | -76.52346 | 32870 ft | 493 kts | 175° |
| 2026-05-07 17:28 | 9.08678 | -76.51936 | 32869 ft | 493 kts | 175° |
| 2026-05-07 17:29 | 9.01790 | -76.51524 | 32869 ft | 493 kts | 175° |
| 2026-05-07 17:29 | 8.94943 | -76.51114 | 32866 ft | 492 kts | 175° |
| 2026-05-07 17:30 | 8.88063 | -76.50704 | 32864 ft | 493 kts | 175° |
| 2026-05-07 17:30 | 8.81235 | -76.50297 | 32867 ft | 492 kts | 175° |
| 2026-05-07 17:31 | 8.74374 | -76.49885 | 32865 ft | 493 kts | 176° |
| 2026-05-07 17:31 | 8.67503 | -76.49473 | 32874 ft | 493 kts | 176° |
| 2026-05-07 17:32 | 8.60641 | -76.49064 | 32884 ft | 494 kts | 176° |
| 2026-05-07 17:32 | 8.54867 | -76.48720 | 32893 ft | 494 kts | 176° |
| 2026-05-07 17:33 | 8.46850 | -76.48240 | 32904 ft | 494 kts | 176° |
| 2026-05-07 17:33 | 8.40016 | -76.47830 | 32904 ft | 494 kts | 176° |
| 2026-05-07 17:34 | 8.33105 | -76.47417 | 32900 ft | 493 kts | 176° |
| 2026-05-07 17:34 | 8.26252 | -76.47327 | 32899 ft | 493 kts | 182° |
| 2026-05-07 17:35 | 8.19430 | -76.47987 | 32905 ft | 493 kts | 189° |
| 2026-05-07 17:35 | 8.12690 | -76.49402 | 32918 ft | 493 kts | 194° |
| 2026-05-07 17:36 | 8.06033 | -76.51113 | 32926 ft | 492 kts | 195° |
| 2026-05-07 17:36 | 7.99378 | -76.52828 | 32930 ft | 492 kts | 195° |
| 2026-05-07 17:37 | 7.92722 | -76.54533 | 32946 ft | 491 kts | 194° |
| 2026-05-07 17:37 | 7.86075 | -76.56233 | 32946 ft | 491 kts | 195° |
| 2026-05-07 17:38 | 7.79457 | -76.57922 | 32950 ft | 491 kts | 195° |
| 2026-05-07 17:38 | 7.72802 | -76.59620 | 32950 ft | 490 kts | 195° |
| 2026-05-07 17:39 | 7.66169 | -76.61311 | 32945 ft | 490 kts | 195° |
| 2026-05-07 17:39 | 7.59562 | -76.62995 | 32944 ft | 489 kts | 195° |
| 2026-05-07 17:40 | 7.52972 | -76.64674 | 32940 ft | 489 kts | 195° |
| 2026-05-07 17:40 | 7.46365 | -76.66357 | 32937 ft | 488 kts | 195° |
| 2026-05-07 17:41 | 7.39756 | -76.68041 | 32925 ft | 489 kts | 195° |
| 2026-05-07 17:41 | 7.33125 | -76.69730 | 32919 ft | 489 kts | 195° |
| 2026-05-07 17:42 | 7.26530 | -76.71409 | 32909 ft | 489 kts | 195° |
| 2026-05-07 17:42 | 7.19923 | -76.73090 | 32905 ft | 487 kts | 195° |
| 2026-05-07 17:43 | 7.13335 | -76.74765 | 32910 ft | 487 kts | 195° |
| 2026-05-07 17:43 | 7.06759 | -76.76437 | 32912 ft | 487 kts | 195° |
| 2026-05-07 17:44 | 7.00197 | -76.78105 | 32913 ft | 487 kts | 195° |
| 2026-05-07 17:44 | 6.93608 | -76.79778 | 32917 ft | 487 kts | 195° |
| 2026-05-07 17:45 | 6.87026 | -76.81454 | 32912 ft | 487 kts | 195° |
| 2026-05-07 17:45 | 6.80422 | -76.83131 | 32903 ft | 486 kts | 195° |
| 2026-05-07 17:46 | 6.73889 | -76.84791 | 32892 ft | 485 kts | 195° |
| 2026-05-07 17:46 | 6.67328 | -76.86455 | 32892 ft | 486 kts | 195° |
| 2026-05-07 17:47 | 6.60722 | -76.88132 | 32892 ft | 486 kts | 195° |
| 2026-05-07 17:47 | 6.54158 | -76.89797 | 32896 ft | 486 kts | 195° |
| 2026-05-07 17:48 | 6.47604 | -76.91459 | 32894 ft | 486 kts | 195° |
| 2026-05-07 17:48 | 6.41021 | -76.93129 | 32898 ft | 485 kts | 195° |
| 2026-05-07 17:49 | 6.34462 | -76.94793 | 32896 ft | 484 kts | 195° |
| 2026-05-07 17:49 | 6.27918 | -76.96452 | 32900 ft | 483 kts | 195° |
| 2026-05-07 17:50 | 6.21391 | -76.98107 | 32910 ft | 484 kts | 194° |
| 2026-05-07 17:50 | 6.14844 | -76.99765 | 32904 ft | 485 kts | 194° |
| 2026-05-07 17:51 | 6.08220 | -77.01102 | 32908 ft | 484 kts | 190° |
| 2026-05-07 17:51 | 6.01555 | -77.02208 | 32910 ft | 483 kts | 190° |
| 2026-05-07 17:52 | 5.94918 | -77.03303 | 32916 ft | 483 kts | 190° |
| 2026-05-07 17:52 | 5.88266 | -77.04404 | 32922 ft | 483 kts | 190° |
| 2026-05-07 17:53 | 5.81575 | -77.05514 | 32921 ft | 484 kts | 190° |
| 2026-05-07 17:53 | 5.74944 | -77.06614 | 32918 ft | 485 kts | 189° |
| 2026-05-07 17:54 | 5.68242 | -77.07725 | 32910 ft | 485 kts | 189° |
| 2026-05-07 17:54 | 5.61561 | -77.08833 | 32905 ft | 485 kts | 189° |
| 2026-05-07 17:55 | 5.54904 | -77.09935 | 32907 ft | 485 kts | 189° |
| 2026-05-07 17:55 | 5.48244 | -77.11039 | 32905 ft | 484 kts | 189° |
| 2026-05-07 17:56 | 5.41563 | -77.12147 | 32907 ft | 483 kts | 189° |
| 2026-05-07 17:56 | 5.34909 | -77.13249 | 32912 ft | 484 kts | 189° |
| 2026-05-07 17:57 | 5.29399 | -77.14162 | 32916 ft | 484 kts | 189° |
| 2026-05-07 17:57 | 5.21579 | -77.15459 | 32908 ft | 484 kts | 189° |
| 2026-05-07 17:58 | 5.14937 | -77.16556 | 32910 ft | 483 kts | 189° |
| 2026-05-07 17:58 | 5.08309 | -77.17651 | 32903 ft | 481 kts | 189° |
| 2026-05-07 17:59 | 5.01670 | -77.18751 | 32898 ft | 482 kts | 189° |
| 2026-05-07 17:59 | 4.95057 | -77.19846 | 32886 ft | 483 kts | 189° |
| 2026-05-07 18:00 | 4.88396 | -77.20949 | 32882 ft | 484 kts | 189° |
| 2026-05-07 18:00 | 4.81732 | -77.22051 | 32884 ft | 484 kts | 189° |
| 2026-05-07 18:01 | 4.75062 | -77.23154 | 32881 ft | 484 kts | 189° |
| 2026-05-07 18:01 | 4.68435 | -77.24249 | 32882 ft | 484 kts | 189° |
| 2026-05-07 18:02 | 4.58419 | -77.25901 | 32875 ft | 483 kts | 189° |
| 2026-05-07 18:03 | 4.51771 | -77.27000 | 32872 ft | 482 kts | 190° |
| 2026-05-07 18:03 | 4.45153 | -77.28095 | 32873 ft | 480 kts | 189° |
| 2026-05-07 18:04 | 4.38547 | -77.29186 | 32872 ft | 479 kts | 189° |
| 2026-05-07 18:04 | 4.31983 | -77.30270 | 32874 ft | 479 kts | 190° |
| 2026-05-07 18:05 | 4.25378 | -77.31361 | 32870 ft | 479 kts | 190° |
| 2026-05-07 18:05 | 4.18789 | -77.32449 | 32871 ft | 479 kts | 189° |
| 2026-05-07 18:06 | 4.12182 | -77.33540 | 32868 ft | 479 kts | 189° |
| 2026-05-07 18:06 | 4.05575 | -77.34629 | 32866 ft | 478 kts | 190° |
| 2026-05-07 18:07 | 3.99004 | -77.35715 | 32866 ft | 479 kts | 189° |
| 2026-05-07 18:07 | 3.92392 | -77.36806 | 32867 ft | 480 kts | 189° |
| 2026-05-07 18:08 | 3.85795 | -77.37894 | 32870 ft | 480 kts | 189° |
| 2026-05-07 18:08 | 3.79202 | -77.38980 | 32876 ft | 479 kts | 190° |
| 2026-05-07 18:09 | 3.72584 | -77.40071 | 32877 ft | 478 kts | 189° |
| 2026-05-07 18:09 | 3.66014 | -77.41155 | 32880 ft | 479 kts | 189° |
| 2026-05-07 18:10 | 3.59388 | -77.42248 | 32885 ft | 480 kts | 189° |
| 2026-05-07 18:10 | 3.52802 | -77.43333 | 32889 ft | 480 kts | 189° |
| 2026-05-07 18:11 | 3.46219 | -77.44417 | 32891 ft | 480 kts | 190° |
| 2026-05-07 18:11 | 3.39605 | -77.45508 | 32893 ft | 479 kts | 189° |
| 2026-05-07 18:12 | 3.32982 | -77.46598 | 32896 ft | 479 kts | 190° |
| 2026-05-07 18:12 | 3.26428 | -77.47678 | 32897 ft | 479 kts | 190° |
| 2026-05-07 18:13 | 3.19807 | -77.48769 | 32896 ft | 479 kts | 190° |
| 2026-05-07 18:13 | 3.13204 | -77.49857 | 32895 ft | 480 kts | 190° |
| 2026-05-07 18:14 | 3.06587 | -77.50947 | 32902 ft | 480 kts | 190° |
| 2026-05-07 18:14 | 2.99973 | -77.52035 | 32905 ft | 481 kts | 190° |
| 2026-05-07 18:15 | 2.93396 | -77.53117 | 32902 ft | 481 kts | 190° |
| 2026-05-07 18:15 | 2.86768 | -77.54208 | 32899 ft | 480 kts | 190° |
| 2026-05-07 18:16 | 2.80165 | -77.55296 | 32900 ft | 480 kts | 190° |
| 2026-05-07 18:16 | 2.73544 | -77.56386 | 32887 ft | 478 kts | 190° |
| 2026-05-07 18:17 | 2.66976 | -77.57468 | 32889 ft | 477 kts | 190° |
| 2026-05-07 18:17 | 2.60411 | -77.58547 | 32881 ft | 477 kts | 190° |
| 2026-05-07 18:18 | 2.53868 | -77.59622 | 32890 ft | 476 kts | 190° |
| 2026-05-07 18:18 | 2.47290 | -77.60706 | 32892 ft | 475 kts | 190° |
| 2026-05-07 18:19 | 2.40764 | -77.61780 | 32905 ft | 474 kts | 190° |
| 2026-05-07 18:19 | 2.34246 | -77.62851 | 32909 ft | 473 kts | 190° |
| 2026-05-07 18:20 | 2.27750 | -77.63921 | 32924 ft | 473 kts | 189° |
| 2026-05-07 18:20 | 2.21213 | -77.64996 | 32941 ft | 473 kts | 189° |
| 2026-05-07 18:21 | 2.14724 | -77.66062 | 32961 ft | 472 kts | 189° |
| 2026-05-07 18:21 | 2.08230 | -77.67129 | 32975 ft | 471 kts | 189° |
| 2026-05-07 18:22 | 2.01745 | -77.68194 | 32980 ft | 471 kts | 189° |
| 2026-05-07 18:22 | 1.95270 | -77.69258 | 33000 ft | 470 kts | 189° |
| 2026-05-07 18:23 | 1.88789 | -77.70324 | 33013 ft | 470 kts | 189° |
| 2026-05-07 18:23 | 1.82305 | -77.71390 | 33022 ft | 471 kts | 189° |
| 2026-05-07 18:24 | 1.75807 | -77.72458 | 33016 ft | 471 kts | 189° |
| 2026-05-07 18:24 | 1.69345 | -77.73519 | 33040 ft | 470 kts | 189° |
| 2026-05-07 18:25 | 1.62851 | -77.74586 | 33086 ft | 471 kts | 189° |
| 2026-05-07 18:25 | 1.56362 | -77.75651 | 33101 ft | 471 kts | 189° |
| 2026-05-07 18:26 | 1.49917 | -77.76711 | 33118 ft | 471 kts | 189° |
| 2026-05-07 18:26 | 1.43392 | -77.77783 | 33166 ft | 471 kts | 189° |
| 2026-05-07 18:27 | 1.36939 | -77.78844 | 33228 ft | 471 kts | 189° |
| 2026-05-07 18:27 | 1.30429 | -77.79914 | 33278 ft | 471 kts | 189° |
| 2026-05-07 18:28 | 1.23980 | -77.80972 | 33326 ft | 471 kts | 189° |
| 2026-05-07 18:28 | 1.17493 | -77.82037 | 33378 ft | 470 kts | 189° |
| 2026-05-07 18:29 | 1.11011 | -77.83102 | 33429 ft | 470 kts | 189° |
| 2026-05-07 18:29 | 1.04530 | -77.84167 | 33460 ft | 471 kts | 189° |
| 2026-05-07 18:30 | 0.98053 | -77.85231 | 33481 ft | 471 kts | 189° |
| 2026-05-07 18:30 | 0.91550 | -77.86300 | 33489 ft | 471 kts | 190° |
| 2026-05-07 18:31 | 0.85162 | -77.87845 | 33497 ft | 470 kts | 198° |
| 2026-05-07 18:31 | 0.79069 | -77.90295 | 33508 ft | 470 kts | 206° |
| 2026-05-07 18:32 | 0.73420 | -77.93591 | 33563 ft | 470 kts | 214° |
| 2026-05-07 18:32 | 0.68145 | -77.97464 | 33580 ft | 471 kts | 217° |
| 2026-05-07 18:33 | 0.62904 | -78.01394 | 33583 ft | 471 kts | 217° |
| 2026-05-07 18:33 | 0.57657 | -78.05315 | 33550 ft | 472 kts | 217° |
| 2026-05-07 18:34 | 0.52385 | -78.09244 | 33523 ft | 471 kts | 217° |
| 2026-05-07 18:34 | 0.47117 | -78.13164 | 33553 ft | 471 kts | 216° |
| 2026-05-07 18:35 | 0.41877 | -78.17061 | 33589 ft | 470 kts | 216° |
| 2026-05-07 18:35 | 0.36610 | -78.20981 | 33579 ft | 470 kts | 217° |
| 2026-05-07 18:36 | 0.31367 | -78.24883 | 33571 ft | 471 kts | 217° |
| 2026-05-07 18:36 | 0.26078 | -78.28821 | 33545 ft | 471 kts | 217° |
| 2026-05-07 18:37 | 0.20841 | -78.32721 | 33556 ft | 472 kts | 217° |
| 2026-05-07 18:37 | 0.15592 | -78.36629 | 34209 ft | 462 kts | 217° |
| 2026-05-07 18:37 | 0.13008 | -78.38553 | 34516 ft | 456 kts | 217° |
| 2026-05-07 18:38 | 0.10481 | -78.40436 | 34531 ft | 454 kts | 217° |
| 2026-05-07 18:38 | 0.05430 | -78.44202 | 34490 ft | 453 kts | 217° |